Time;durP1;ratioP1;P1;durP2;ratioP2;P2;SDS_P1;SDS_P2;PMS_P1;PMS_P2;Temp;Humidity;BMP_temperature;BMP_pressure;BME280_temperature;BME280_humidity;BME280_pressure;Samples;Min_cycle;Max_cycle;Signal;HPM_P1;HPM_P2
2021/04/10 00:01:28;;;;;;;12.80;6.63;;;;;;;8.04;63.51;100968.75;5057606;28;20436;-71
2021/04/10 00:03:54;;;;;;;12.30;6.50;;;;;;;8.20;63.20;100969.09;5057201;28;20193;-71
2021/04/10 00:06:19;;;;;;;13.00;6.50;;;;;;;8.29;62.03;100961.50;5058113;28;20669;-71
2021/04/10 00:08:44;;;;;;;12.20;6.13;;;;;;;8.06;62.33;100967.09;5057923;28;20166;-71
2021/04/10 00:11:10;;;;;;;11.77;6.53;;;;;;;8.27;61.62;100965.81;5057813;28;20185;-72
2021/04/10 00:13:35;;;;;;;11.20;6.20;;;;;;;8.04;62.24;100963.56;5058067;28;20437;-72
2021/04/10 00:16:00;;;;;;;13.03;6.80;;;;;;;8.21;61.76;100943.19;5057781;28;20201;-71
2021/04/10 00:18:26;;;;;;;18.17;6.10;;;;;;;8.04;61.84;100945.38;5057472;28;20191;-71
2021/04/10 00:20:51;;;;;;;12.00;5.67;;;;;;;8.20;62.14;100958.72;5058625;28;20452;-71
2021/04/10 00:23:16;;;;;;;10.60;6.03;;;;;;;8.01;62.37;100953.09;5058392;28;20598;-71
2021/04/10 00:25:41;;;;;;;11.80;5.87;;;;;;;7.72;63.70;100966.25;5061801;28;20225;-71
2021/04/10 00:28:07;;;;;;;12.50;5.67;;;;;;;7.37;64.87;100968.84;5062071;28;20528;-71
2021/04/10 00:30:32;;;;;;;11.40;5.10;;;;;;;7.62;64.61;100958.19;5061495;28;20173;-71
2021/04/10 00:32:57;;;;;;;12.13;5.93;;;;;;;7.56;64.39;100962.41;5061385;28;20200;-72
2021/04/10 00:35:23;;;;;;;11.50;5.93;;;;;;;7.82;63.63;100969.06;5062197;28;20597;-71
2021/04/10 00:37:48;;;;;;;9.33;5.47;;;;;;;7.71;63.70;100969.69;5061620;28;20174;-71
2021/04/10 00:40:14;;;;;;;9.63;5.83;;;;;;;7.63;64.59;100963.44;5061485;28;20166;-71
2021/04/10 00:42:39;;;;;;;11.70;5.97;;;;;;;7.57;65.26;100965.88;5061590;28;20440;-71
2021/04/10 00:45:06;;;;;;;13.47;7.40;;;;;;;7.89;64.41;100971.00;5061114;28;20458;-71
2021/04/10 00:47:31;;;;;;;9.33;6.00;;;;;;;7.62;64.49;100968.56;5061145;28;20166;-71
2021/04/10 00:49:57;;;;;;;11.90;6.13;;;;;;;7.73;64.35;100978.38;5061671;28;20396;-71
2021/04/10 00:52:22;;;;;;;16.40;6.20;;;;;;;7.46;65.35;100977.69;5061073;28;20204;-70
2021/04/10 00:54:49;;;;;;;11.50;6.47;;;;;;;7.51;65.56;100983.84;5061205;28;20256;-71
2021/04/10 00:57:15;;;;;;;10.73;6.20;;;;;;;7.36;66.37;100974.84;5061772;28;20200;-70
2021/04/10 00:59:41;;;;;;;14.53;7.20;;;;;;;7.64;65.50;100966.91;5059904;28;20443;-73
2021/04/10 01:02:08;;;;;;;14.53;7.27;;;;;;;7.46;66.68;100967.31;5060648;28;20280;-70
2021/04/10 01:04:33;;;;;;;8.70;6.60;;;;;;;7.47;67.22;100967.34;5061414;28;20177;-72
2021/04/10 01:06:58;;;;;;;15.73;9.10;;;;;;;7.33;67.04;100964.38;5060731;28;20487;-71
2021/04/10 01:09:23;;;;;;;10.83;7.07;;;;;;;7.35;65.48;100954.94;5060730;28;20170;-71
2021/04/10 01:11:58;;;;;;;8.87;5.70;;;;;;;7.39;64.02;100955.91;5061140;28;20166;-71
2021/04/10 01:14:42;;;;;;;14.17;6.13;;;;;;;7.27;63.74;100946.06;5060898;28;20208;-71
2021/04/10 01:17:11;;;;;;;7.77;4.83;;;;;;;7.36;64.13;100951.50;5060879;28;20465;-72
2021/04/10 01:19:45;;;;;;;12.13;7.33;;;;;;;7.76;62.39;100955.09;5060049;28;20534;-71
2021/04/10 01:22:32;;;;;;;10.40;7.77;;;;;;;7.36;62.09;100959.28;5060539;28;20505;-71
2021/04/10 01:24:59;;;;;;;19.37;10.40;;;;;;;7.79;61.03;100956.03;5062390;28;20424;-72
2021/04/10 01:27:33;;;;;;;12.67;7.70;;;;;;;7.79;61.13;100954.28;5064454;28;20458;-72
2021/04/10 01:30:03;;;;;;;13.77;7.87;;;;;;;8.07;61.19;100962.75;5059974;28;20428;-72
2021/04/10 01:32:31;;;;;;;8.30;5.67;;;;;;;7.65;62.00;100958.28;5060295;28;20510;-72
2021/04/10 01:35:06;;;;;;;15.03;9.57;;;;;;;7.80;62.29;100966.44;5058383;28;20435;-72
2021/04/10 01:37:33;;;;;;;10.60;6.03;;;;;;;7.55;62.84;100971.03;5060408;28;20443;-72
2021/04/10 01:40:00;;;;;;;15.60;9.50;;;;;;;7.73;62.98;100962.81;5060103;28;20435;-72
2021/04/10 01:42:27;;;;;;;9.03;6.37;;;;;;;7.86;62.56;100968.28;5059709;28;20416;-72
2021/04/10 01:44:57;;;;;;;12.27;6.13;;;;;;;7.68;63.00;100967.00;5060300;28;20487;-71
2021/04/10 01:47:22;;;;;;;12.23;6.30;;;;;;;7.53;63.76;100967.50;5059658;28;20416;-72
2021/04/10 01:49:49;;;;;;;15.50;9.30;;;;;;;7.87;63.41;100972.66;5060179;28;20423;-72
2021/04/10 01:52:16;;;;;;;10.60;6.33;;;;;;;8.09;62.72;100971.44;5060069;28;20169;-72
2021/04/10 01:54:42;;;;;;;13.67;6.40;;;;;;;7.90;62.87;100975.31;5059551;28;20430;-72
2021/04/10 01:57:08;;;;;;;10.77;6.73;;;;;;;7.79;63.86;100980.25;5059930;28;20416;-71
2021/04/10 01:59:39;;;;;;;9.53;6.13;;;;;;;7.87;63.38;100983.91;5059696;28;20170;-72
2021/04/10 02:02:05;;;;;;;9.80;5.70;;;;;;;7.53;63.81;100990.84;5059703;28;20204;-72
2021/04/10 02:04:38;;;;;;;12.77;6.60;;;;;;;7.88;63.03;100985.66;5059158;28;20416;-71
2021/04/10 02:07:04;;;;;;;9.47;6.57;;;;;;;7.73;63.96;100993.09;5058838;28;20181;-72
2021/04/10 02:09:31;;;;;;;12.10;6.63;;;;;;;7.98;62.62;100978.97;5059245;28;20671;-72
2021/04/10 02:11:57;;;;;;;13.53;6.90;;;;;;;8.00;63.16;100985.09;5059317;28;20165;-71
2021/04/10 02:14:23;;;;;;;18.20;8.50;;;;;;;7.93;63.80;100983.22;5058876;28;20471;-70
2021/04/10 02:16:48;;;;;;;16.43;6.93;;;;;;;7.84;64.02;100990.75;5058953;28;20423;-71
2021/04/10 02:19:15;;;;;;;15.13;7.07;;;;;;;7.66;65.02;100994.66;5061437;28;20212;-72
2021/04/10 02:21:40;;;;;;;12.27;7.77;;;;;;;7.94;63.79;100982.34;5059197;28;20178;-72
2021/04/10 02:24:07;;;;;;;17.03;8.63;;;;;;;7.27;66.03;100986.69;5059439;28;20422;-72
2021/04/10 02:26:33;;;;;;;13.27;7.47;;;;;;;7.62;65.43;100981.53;5059319;28;20225;-72
2021/04/10 02:28:58;;;;;;;14.40;8.10;;;;;;;7.70;65.29;100974.84;5059511;28;20412;-72
2021/04/10 02:31:49;;;;;;;17.17;9.13;;;;;;;7.46;65.92;100985.47;5059890;28;20177;-71
2021/04/10 02:34:21;;;;;;;18.57;7.80;;;;;;;7.73;65.50;100985.31;5058356;28;20251;-71
2021/04/10 02:36:49;;;;;;;8.30;6.23;;;;;;;7.47;65.31;101000.19;5059274;28;20412;-72
2021/04/10 02:39:15;;;;;;;11.43;7.53;;;;;;;7.53;65.22;100993.44;5058473;28;20507;-72
2021/04/10 02:41:44;;;;;;;11.47;6.93;;;;;;;7.75;65.56;100996.59;5058316;28;20416;-72
2021/04/10 02:44:10;;;;;;;16.23;7.47;;;;;;;7.54;65.84;100991.75;5058874;28;20426;-71
2021/04/10 02:46:38;;;;;;;14.47;7.10;;;;;;;7.36;65.87;100982.63;5058381;28;20515;-71
2021/04/10 02:49:05;;;;;;;11.43;6.70;;;;;;;6.97;67.99;100993.66;5071654;28;20417;-71
2021/04/10 02:51:47;;;;;;;15.87;7.00;;;;;;;7.10;67.35;100994.00;5071736;28;20413;-72
2021/04/10 02:54:16;;;;;;;10.20;7.23;;;;;;;7.38;66.09;101001.69;5038855;28;20468;-72
2021/04/10 02:56:46;;;;;;;17.33;7.80;;;;;;;7.26;66.99;101001.38;5039017;28;20417;-71
2021/04/10 02:59:12;;;;;;;16.23;7.90;;;;;;;7.15;66.92;101008.84;5038076;28;20456;-71
2021/04/10 03:01:38;;;;;;;12.57;7.83;;;;;;;7.30;66.56;101000.59;5070734;28;20456;-72
2021/04/10 03:04:03;;;;;;;15.60;7.23;;;;;;;7.42;66.26;101003.53;5038484;28;20783;-71
2021/04/10 03:06:29;;;;;;;15.33;8.27;;;;;;;7.44;66.46;101011.34;5037907;28;20176;-71
2021/04/10 03:08:56;;;;;;;13.03;7.07;;;;;;;7.42;66.11;101019.09;5037984;28;20174;-72
2021/04/10 03:11:21;;;;;;;13.87;6.87;;;;;;;7.57;65.25;101017.75;5038462;28;20503;-70
2021/04/10 03:13:46;;;;;;;13.63;8.30;;;;;;;7.85;64.72;101018.47;5038359;28;20559;-72
2021/04/10 03:16:12;;;;;;;13.13;7.80;;;;;;;7.56;65.29;101016.00;5057966;28;20193;-71
2021/04/10 03:18:38;;;;;;;16.63;7.60;;;;;;;7.71;65.35;101021.59;5058717;28;20562;-71
2021/04/10 03:21:05;;;;;;;16.30;8.10;;;;;;;7.41;65.69;101025.16;5059903;28;20200;-72
2021/04/10 03:23:30;;;;;;;13.83;7.70;;;;;;;7.46;65.74;101021.78;5062921;28;20426;-70
2021/04/10 03:25:58;;;;;;;14.40;7.83;;;;;;;7.16;67.23;101027.91;5057538;28;20456;-71
2021/04/10 03:28:26;;;;;;;14.37;8.50;;;;;;;7.45;66.03;101012.25;5057282;28;20498;-72
2021/04/10 03:30:51;;;;;;;17.73;7.33;;;;;;;7.16;66.57;101015.78;5057753;28;20478;-72
2021/04/10 03:33:17;;;;;;;18.27;7.73;;;;;;;7.07;66.95;101018.13;5058137;28;20542;-72
2021/04/10 03:35:42;;;;;;;17.03;8.83;;;;;;;7.17;66.16;101025.34;5058253;28;20169;-71
2021/04/10 03:38:07;;;;;;;11.27;7.37;;;;;;;7.50;65.71;101026.22;5057908;28;20423;-73
2021/04/10 03:40:33;;;;;;;9.20;7.27;;;;;;;7.60;65.67;101033.41;5057339;28;20251;-71
2021/04/10 03:42:58;;;;;;;15.13;8.40;;;;;;;7.48;65.86;101040.84;5057665;28;20267;-71
2021/04/10 03:45:23;;;;;;;15.83;7.97;;;;;;;7.28;65.94;101041.19;5058541;28;20170;-71
2021/04/10 03:47:53;;;;;;;15.33;8.93;;;;;;;7.21;66.48;101037.56;5058014;28;20174;-70
2021/04/10 03:50:19;;;;;;;19.30;8.57;;;;;;;7.24;66.28;101041.94;5058150;28;20539;-70
2021/04/10 03:52:44;;;;;;;15.20;7.07;;;;;;;7.40;65.26;101038.03;5058069;28;20509;-72
2021/04/10 03:55:10;;;;;;;14.80;7.57;;;;;;;7.04;65.77;101042.25;5057561;28;20174;-72
2021/04/10 03:57:36;;;;;;;15.50;7.30;;;;;;;7.14;64.86;101050.28;5056746;28;20177;-71
2021/04/10 04:00:04;;;;;;;16.97;7.10;;;;;;;7.19;65.56;101053.91;5058103;28;20412;-71
2021/04/10 04:02:29;;;;;;;11.57;7.23;;;;;;;7.00;65.34;101055.94;5057815;28;20242;-71
2021/04/10 04:04:55;;;;;;;13.40;7.37;;;;;;;6.91;65.57;101053.97;5057687;28;20439;-71
2021/04/10 04:07:20;;;;;;;16.93;6.60;;;;;;;7.10;64.16;101049.31;5058290;28;20173;-71
2021/04/10 04:09:46;;;;;;;15.73;8.40;;;;;;;7.70;63.13;101048.38;5057513;28;20543;-72
2021/04/10 04:12:11;;;;;;;11.80;6.50;;;;;;;7.47;63.27;101058.16;5057669;28;20184;-72
2021/04/10 04:14:37;;;;;;;17.73;7.93;;;;;;;7.09;64.72;101060.53;5058201;28;20231;-72
2021/04/10 04:17:04;;;;;;;8.80;5.70;;;;;;;7.26;63.33;101058.41;5057377;28;20238;-72
2021/04/10 04:19:30;;;;;;;10.87;6.27;;;;;;;7.42;62.41;101065.78;5056605;28;20431;-71
2021/04/10 04:21:55;;;;;;;12.50;6.43;;;;;;;7.49;62.31;101073.75;5055916;28;20463;-69
2021/04/10 04:24:21;;;;;;;14.30;6.33;;;;;;;7.17;63.17;101072.00;5057640;28;20483;-71
2021/04/10 04:26:46;;;;;;;9.73;6.53;;;;;;;7.00;64.63;101075.81;5057703;28;20225;-71
2021/04/10 04:29:12;;;;;;;12.73;6.57;;;;;;;6.98;64.24;101075.78;5057890;28;20178;-71
2021/04/10 04:31:38;;;;;;;22.03;7.20;;;;;;;7.06;63.86;101076.88;5057293;28;20181;-70
2021/04/10 04:34:03;;;;;;;12.90;7.13;;;;;;;7.12;64.29;101078.78;5057482;28;20467;-70
2021/04/10 04:36:28;;;;;;;21.47;7.10;;;;;;;6.97;64.48;101071.44;5057613;28;20181;-69
2021/04/10 04:38:54;;;;;;;28.40;13.77;;;;;;;7.19;62.81;101077.25;5062879;28;20173;-71
2021/04/10 04:41:21;;;;;;;11.03;7.13;;;;;;;7.22;62.62;101078.19;5077869;28;20173;-69
2021/04/10 04:43:46;;;;;;;13.73;7.97;;;;;;;7.05;62.26;101082.91;5077219;28;20410;-70
2021/04/10 04:46:11;;;;;;;14.57;6.23;;;;;;;6.88;63.42;101089.28;5065682;28;20436;-71
2021/04/10 04:48:37;;;;;;;15.63;6.47;;;;;;;7.17;61.73;101084.97;5057666;28;20169;-70
2021/04/10 04:51:02;;;;;;;13.47;5.70;;;;;;;7.30;61.71;101083.59;5058301;28;20177;-70
2021/04/10 04:53:28;;;;;;;15.40;5.80;;;;;;;7.37;61.23;101098.53;5057027;28;20201;-70
2021/04/10 04:55:53;;;;;;;14.40;5.73;;;;;;;7.28;61.50;101097.34;5051916;28;21602;-72
2021/04/10 04:58:18;;;;;;;11.70;5.90;;;;;;;7.01;61.53;101093.09;5049704;28;20182;-70
2021/04/10 05:00:44;;;;;;;8.57;5.77;;;;;;;6.88;61.38;101103.13;5057096;28;20209;-70
2021/04/10 05:03:09;;;;;;;12.23;5.60;;;;;;;6.89;62.21;101114.38;5057367;28;20407;-73
2021/04/10 05:05:34;;;;;;;12.53;6.67;;;;;;;6.89;62.10;101117.84;5049786;28;20191;-71
2021/04/10 05:08:00;;;;;;;13.30;6.37;;;;;;;6.75;62.30;101119.09;5047141;28;20190;-71
2021/04/10 05:10:25;;;;;;;12.07;5.60;;;;;;;6.93;62.03;101105.88;5048044;28;20193;-72
2021/04/10 05:12:53;;;;;;;11.70;5.83;;;;;;;6.79;62.19;101104.53;5060985;28;20239;-70
2021/04/10 05:15:19;;;;;;;14.50;6.47;;;;;;;6.94;60.98;101107.63;5061088;28;20204;-72
2021/04/10 05:17:44;;;;;;;15.37;5.57;;;;;;;7.28;59.75;101108.63;5046020;28;20677;-70
2021/04/10 05:20:10;;;;;;;9.20;5.33;;;;;;;7.42;59.71;101111.59;5041604;28;20465;-71
2021/04/10 05:22:35;;;;;;;16.27;6.07;;;;;;;7.38;60.27;101120.13;5040573;28;20185;-72
2021/04/10 05:25:01;;;;;;;18.20;5.67;;;;;;;7.53;58.37;101111.91;5040423;28;20222;-70
2021/04/10 05:27:26;;;;;;;10.17;5.53;;;;;;;7.67;58.32;101120.06;5065206;28;20211;-71
2021/04/10 05:29:52;;;;;;;11.87;7.33;;;;;;;7.65;58.21;101130.41;5060129;28;20507;-72
2021/04/10 05:32:17;;;;;;;7.97;5.40;;;;;;;7.36;59.13;101130.47;5060194;28;20185;-72
2021/04/10 05:34:42;;;;;;;9.43;5.17;;;;;;;7.53;57.40;101140.44;5060471;28;20217;-72
2021/04/10 05:37:08;;;;;;;12.77;5.17;;;;;;;7.75;56.11;101139.31;5060359;28;20180;-71
2021/04/10 05:39:33;;;;;;;8.70;5.50;;;;;;;7.69;56.22;101147.81;5060086;28;20208;-71
2021/04/10 05:41:58;;;;;;;9.20;4.60;;;;;;;7.92;54.99;101152.78;5060383;28;20207;-72
2021/04/10 05:44:24;;;;;;;14.13;5.50;;;;;;;7.68;56.33;101152.97;5059397;28;20197;-72
2021/04/10 05:46:49;;;;;;;12.97;5.40;;;;;;;7.81;55.58;101162.00;5059766;28;20188;-71
2021/04/10 05:49:14;;;;;;;12.17;5.20;;;;;;;7.35;57.06;101154.66;5060597;28;20219;-71
2021/04/10 05:51:39;;;;;;;8.00;4.67;;;;;;;7.94;54.58;101158.88;5060107;28;20520;-71
2021/04/10 05:54:05;;;;;;;9.80;4.70;;;;;;;7.63;55.04;101159.75;5059938;28;20217;-72
2021/04/10 05:56:31;;;;;;;12.23;4.90;;;;;;;7.86;55.13;101166.47;5060433;28;20173;-72
2021/04/10 05:58:56;;;;;;;12.93;4.40;;;;;;;7.56;55.32;101162.19;5059922;28;20197;-71
2021/04/10 06:01:21;;;;;;;10.00;5.03;;;;;;;7.66;54.78;101168.50;5059685;28;20181;-71
2021/04/10 06:03:47;;;;;;;9.47;4.40;;;;;;;7.64;54.85;101180.53;5060188;28;20173;-70
2021/04/10 06:06:12;;;;;;;10.73;5.33;;;;;;;7.90;54.21;101178.69;5059806;28;20177;-71
2021/04/10 06:08:38;;;;;;;8.93;4.50;;;;;;;7.46;54.05;101180.03;5059927;28;20546;-70
2021/04/10 06:11:03;;;;;;;7.03;4.43;;;;;;;7.32;55.29;101182.19;5060152;28;20537;-70
2021/04/10 06:13:29;;;;;;;10.83;4.77;;;;;;;8.09;53.74;101179.19;5059136;28;20578;-71
2021/04/10 06:15:54;;;;;;;12.07;5.10;;;;;;;8.23;53.47;101182.16;5053323;28;20206;-70
2021/04/10 06:18:19;;;;;;;11.57;4.83;;;;;;;7.55;53.88;101190.66;5039036;28;20231;-70
2021/04/10 06:20:45;;;;;;;10.27;5.03;;;;;;;7.53;54.27;101190.59;5038191;28;20170;-70
2021/04/10 06:23:10;;;;;;;14.57;6.10;;;;;;;8.07;53.94;101192.13;5039574;28;20189;-70
2021/04/10 06:25:35;;;;;;;13.30;6.03;;;;;;;8.34;52.88;101196.31;5039509;28;20218;-70
2021/04/10 06:28:03;;;;;;;11.87;6.20;;;;;;;8.04;53.51;101210.22;5046304;28;20185;-71
2021/04/10 06:30:28;;;;;;;10.20;4.90;;;;;;;8.21;53.41;101205.50;5059457;28;20173;-70
2021/04/10 06:32:54;;;;;;;12.30;5.77;;;;;;;8.17;53.55;101207.97;5059018;28;20957;-71
2021/04/10 06:35:19;;;;;;;10.10;5.63;;;;;;;8.01;53.74;101209.25;5059280;28;20173;-71
2021/04/10 06:37:45;;;;;;;8.60;4.93;;;;;;;7.92;52.89;101212.50;5059291;28;20208;-72
2021/04/10 06:40:10;;;;;;;9.60;4.90;;;;;;;8.02;51.66;101214.47;5058953;28;20188;-71
2021/04/10 06:42:36;;;;;;;6.70;4.60;;;;;;;7.56;52.93;101216.66;5058771;28;20181;-71
2021/04/10 06:45:02;;;;;;;6.80;4.80;;;;;;;8.00;50.81;101213.56;5059555;28;20180;-73
2021/04/10 06:47:30;;;;;;;11.00;5.13;;;;;;;12.77;58.19;101202.16;5058443;28;20180;-67
2021/04/10 06:49:57;;;;;;;8.97;4.43;;;;;;;14.41;45.61;101195.97;5058396;28;20415;-68
2021/04/10 06:52:22;;;;;;;7.53;3.70;;;;;;;11.14;42.56;101209.00;5059181;28;20742;-69
2021/04/10 06:54:52;;;;;;;7.40;4.30;;;;;;;10.18;44.85;101218.66;5057846;28;20487;-69
2021/04/10 06:57:19;;;;;;;10.37;4.50;;;;;;;9.55;45.83;101222.59;5058153;28;20180;-69
2021/04/10 07:00:07;;;;;;;9.20;4.50;;;;;;;8.79;47.23;101225.19;5058558;28;20408;-70
2021/04/10 07:02:32;;;;;;;10.97;5.10;;;;;;;8.91;47.10;101225.47;5058443;28;20781;-68
2021/04/10 07:04:59;;;;;;;9.87;4.70;;;;;;;7.95;48.72;101230.75;5058608;28;20436;-68
2021/04/10 07:07:25;;;;;;;8.73;4.20;;;;;;;8.83;47.29;101233.06;5057915;28;20268;-68
2021/04/10 07:09:50;;;;;;;11.10;4.20;;;;;;;8.90;45.28;101237.59;5059895;28;20681;-69
2021/04/10 07:12:16;;;;;;;11.87;4.30;;;;;;;8.87;45.56;101231.44;5061249;28;20436;-68
2021/04/10 07:14:41;;;;;;;11.00;4.33;;;;;;;8.96;45.17;101235.97;5057585;28;20224;-71
2021/04/10 07:17:06;;;;;;;9.57;4.60;;;;;;;8.79;44.78;101236.44;5057453;28;20193;-70
2021/04/10 07:19:32;;;;;;;6.33;3.80;;;;;;;8.56;45.76;101235.88;5058857;28;20182;-72
2021/04/10 07:22:04;;;;;;;9.57;3.80;;;;;;;9.24;44.07;101233.22;5058034;28;20181;-72
2021/04/10 07:24:35;;;;;;;7.10;4.10;;;;;;;8.96;44.69;101239.47;5057941;28;20208;-72
2021/04/10 07:27:01;;;;;;;6.80;3.87;;;;;;;9.20;44.25;101241.78;5058045;28;20473;-72
2021/04/10 07:29:35;;;;;;;5.80;3.50;;;;;;;8.67;44.75;101242.22;5058242;28;20451;-72
2021/04/10 07:32:02;;;;;;;7.07;4.03;;;;;;;8.73;44.73;101247.56;5058145;28;20169;-71
2021/04/10 07:34:28;;;;;;;5.17;3.40;;;;;;;9.12;43.63;101252.84;5056998;28;20434;-72
2021/04/10 07:36:58;;;;;;;10.37;4.10;;;;;;;9.10;43.33;101252.81;5058085;28;20420;-71
2021/04/10 07:39:23;;;;;;;9.80;4.40;;;;;;;9.77;42.90;101245.63;5058227;28;20558;-71
2021/04/10 07:42:02;;;;;;;9.30;4.13;;;;;;;9.64;42.19;101248.81;5058043;28;20468;-71
2021/04/10 07:44:40;;;;;;;7.33;4.20;;;;;;;9.70;41.99;101246.34;5058000;28;20196;-71
2021/04/10 07:47:08;;;;;;;8.93;3.50;;;;;;;9.55;42.04;101256.41;5058624;28;20712;-71
2021/04/10 07:49:35;;;;;;;10.03;4.33;;;;;;;9.65;41.70;101258.41;5058000;28;20690;-70
2021/04/10 07:52:04;;;;;;;9.13;4.00;;;;;;;9.35;41.82;101264.69;5057237;28;20868;-71
2021/04/10 07:54:37;;;;;;;5.80;3.20;;;;;;;9.24;42.24;101261.81;5057656;28;20459;-69
2021/04/10 07:57:07;;;;;;;8.63;3.57;;;;;;;9.32;41.60;101261.13;5058125;28;20481;-71
2021/04/10 07:59:51;;;;;;;5.00;3.27;;;;;;;9.73;41.03;101262.03;5057945;28;20695;-70
2021/04/10 08:02:18;;;;;;;10.00;4.20;;;;;;;10.52;41.12;101258.41;5057653;28;20391;-71
2021/04/10 08:05:06;;;;;;;7.47;3.90;;;;;;;10.52;39.44;101262.75;5057489;28;20443;-71
2021/04/10 08:07:32;;;;;;;9.90;3.50;;;;;;;10.81;38.52;101262.38;5057952;28;20498;-70
2021/04/10 08:10:00;;;;;;;8.80;3.80;;;;;;;11.10;36.88;101266.34;5057518;28;20838;-69
2021/04/10 08:12:31;;;;;;;6.03;3.80;;;;;;;10.91;37.62;101266.91;5057572;28;20416;-70
2021/04/10 08:14:57;;;;;;;5.47;3.60;;;;;;;11.01;38.47;101267.94;5057972;28;20420;-71
2021/04/10 08:17:35;;;;;;;8.10;3.50;;;;;;;11.70;36.19;101271.56;5057602;28;20442;-71
2021/04/10 08:20:23;;;;;;;12.10;4.43;;;;;;;11.88;36.89;101267.44;5057693;28;21088;-71
2021/04/10 08:22:50;;;;;;;6.97;3.57;;;;;;;12.61;34.49;101274.38;5057221;28;20416;-70
2021/04/10 08:25:29;;;;;;;5.50;3.93;;;;;;;12.71;34.56;101278.00;5057747;28;20431;-70
2021/04/10 08:27:56;;;;;;;7.83;3.93;;;;;;;12.71;34.56;101280.59;5057453;28;20443;-70
2021/04/10 08:30:21;;;;;;;8.80;4.30;;;;;;;12.73;33.85;101271.00;5057456;28;20461;-70
2021/04/10 08:32:46;;;;;;;5.20;3.13;;;;;;;12.06;34.59;101272.94;5057448;28;20738;-70
2021/04/10 08:35:12;;;;;;;8.70;3.63;;;;;;;12.74;33.64;101267.53;5057574;28;20169;-69
2021/04/10 08:37:39;;;;;;;10.40;3.80;;;;;;;12.04;33.32;101271.16;5057770;28;20170;-69
2021/04/10 08:40:05;;;;;;;7.70;3.30;;;;;;;12.85;33.23;101272.88;5056392;28;20256;-70
2021/04/10 08:42:31;;;;;;;8.70;3.73;;;;;;;13.53;31.93;101276.91;5056536;28;20403;-72
2021/04/10 08:44:56;;;;;;;6.70;4.30;;;;;;;13.88;31.51;101277.94;5059416;28;20412;-72
2021/04/10 08:47:22;;;;;;;7.20;3.87;;;;;;;12.97;32.75;101279.09;5061268;28;20177;-70
2021/04/10 08:49:49;;;;;;;5.10;3.40;;;;;;;10.52;36.46;101301.84;5060531;28;20169;-70
2021/04/10 08:52:20;;;;;;;6.90;4.60;;;;;;;12.83;33.28;101288.56;5060567;28;20177;-70
2021/04/10 08:54:46;;;;;;;8.30;4.27;;;;;;;13.05;32.29;101297.47;5059955;28;20441;-71
2021/04/10 08:57:14;;;;;;;8.47;5.00;;;;;;;13.97;32.10;101291.09;5060195;28;20387;-71
2021/04/10 08:59:49;;;;;;;16.33;9.37;;;;;;;15.94;28.96;101287.72;5061445;28;20197;-70
2021/04/10 09:02:19;;;;;;;7.03;3.70;;;;;;;15.48;27.90;101287.84;5060645;28;20407;-72
2021/04/10 09:04:58;;;;;;;6.90;3.50;;;;;;;13.46;31.56;101296.94;5063919;28;20491;-71
2021/04/10 09:07:48;;;;;;;5.70;3.60;;;;;;;14.70;28.84;101286.97;5065932;28;20407;-67
2021/04/10 09:10:28;;;;;;;6.00;3.80;;;;;;;16.56;26.71;101291.81;5061120;28;20404;-73
2021/04/10 09:13:13;;;;;;;7.10;3.63;;;;;;;15.05;28.34;101296.63;5060775;28;20422;-71
2021/04/10 09:15:38;;;;;;;4.60;3.60;;;;;;;14.42;28.01;101297.41;5060732;28;20426;-71
2021/04/10 09:18:05;;;;;;;6.00;3.03;;;;;;;12.07;32.02;101321.72;5060806;28;20416;-68
2021/04/10 09:20:47;;;;;;;4.93;3.10;;;;;;;13.43;30.05;101315.25;5060824;28;20470;-71
2021/04/10 09:23:21;;;;;;;7.60;3.70;;;;;;;13.01;31.38;101326.22;5060097;28;20683;-69
2021/04/10 09:26:06;;;;;;;6.27;4.00;;;;;;;15.25;28.44;101316.75;5040417;28;20472;-70
2021/04/10 09:28:33;;;;;;;8.40;3.77;;;;;;;14.65;28.45;101320.19;5040219;28;20405;-69
2021/04/10 09:30:59;;;;;;;5.93;3.60;;;;;;;14.91;27.30;101320.25;5040637;28;20405;-73
2021/04/10 09:33:30;;;;;;;5.90;3.23;;;;;;;14.87;27.29;101322.88;5040159;28;20859;-71
2021/04/10 09:35:56;;;;;;;8.40;3.40;;;;;;;14.92;26.62;101329.00;5040425;28;20265;-71
2021/04/10 09:38:44;;;;;;;6.20;3.83;;;;;;;15.03;27.75;101337.75;5051015;28;20432;-72
2021/04/10 09:41:10;;;;;;;7.90;4.23;;;;;;;14.62;29.05;101335.91;5060097;28;20428;-71
2021/04/10 09:44:05;;;;;;;11.30;6.97;;;;;;;14.44;28.72;101326.25;5060137;28;20431;-72
2021/04/10 09:46:31;;;;;;;4.57;3.23;;;;;;;15.00;27.78;101332.50;5060139;28;20430;-71
2021/04/10 09:48:57;;;;;;;5.40;3.83;;;;;;;14.47;28.94;101340.22;5060267;28;20835;-71
2021/04/10 09:51:22;;;;;;;5.20;3.77;;;;;;;15.62;28.40;101337.75;5059847;28;20420;-71
2021/04/10 09:53:49;;;;;;;8.40;3.90;;;;;;;14.93;27.29;101331.63;5060029;28;20213;-71
2021/04/10 09:56:16;;;;;;;6.00;3.17;;;;;;;15.30;27.25;101344.78;5059592;28;20382;-73
2021/04/10 09:58:46;;;;;;;6.73;3.80;;;;;;;15.69;26.47;101339.47;5060195;28;20420;-74
2021/04/10 10:01:20;;;;;;;5.73;3.30;;;;;;;15.07;26.29;101339.53;5059924;28;20732;-72
2021/04/10 10:03:47;;;;;;;5.77;4.00;;;;;;;14.94;26.89;101343.03;5059478;28;20664;-74
2021/04/10 10:06:28;;;;;;;8.13;3.63;;;;;;;14.78;26.57;101353.47;5059649;28;20435;-74
2021/04/10 10:08:54;;;;;;;5.80;3.03;;;;;;;15.04;26.23;101344.75;5059091;28;20474;-74
2021/04/10 10:11:19;;;;;;;4.10;2.93;;;;;;;14.10;27.48;101347.09;5059775;28;20781;-73
2021/04/10 10:13:45;;;;;;;5.87;3.10;;;;;;;14.35;27.84;101332.31;5059867;28;20239;-72
2021/04/10 10:16:11;;;;;;;5.93;3.37;;;;;;;14.40;27.12;101335.84;5059732;28;20594;-71
2021/04/10 10:18:40;;;;;;;6.53;4.73;;;;;;;14.93;26.37;101330.75;5059548;28;20172;-71
2021/04/10 10:21:11;;;;;;;10.40;5.07;;;;;;;14.43;27.39;101332.38;5059803;28;20161;-75
2021/04/10 10:23:38;;;;;;;9.00;5.47;;;;;;;14.15;27.68;101330.53;5058994;28;20398;-75
2021/04/10 10:26:15;;;;;;;11.63;5.83;;;;;;;14.85;26.94;101327.25;5059489;28;20437;-72
2021/04/10 10:28:42;;;;;;;12.53;7.77;;;;;;;15.58;26.07;101326.34;5059677;28;20408;-72
2021/04/10 10:31:13;;;;;;;4.90;3.50;;;;;;;14.50;27.35;101334.13;5059240;28;20411;-71
2021/04/10 10:33:39;;;;;;;9.43;3.90;;;;;;;14.81;26.96;101334.22;5059103;28;20696;-73
2021/04/10 10:36:05;;;;;;;4.00;3.47;;;;;;;13.42;26.01;101342.31;5059472;28;20394;-72
2021/04/10 10:38:36;;;;;;;5.00;3.10;;;;;;;12.73;27.27;101350.41;5059765;28;20461;-71
2021/04/10 10:41:03;;;;;;;5.07;3.27;;;;;;;14.45;25.78;101339.38;5058956;28;20407;-72
2021/04/10 10:43:28;;;;;;;5.77;3.53;;;;;;;15.81;23.92;101334.22;5059071;28;20419;-72
2021/04/10 10:45:57;;;;;;;6.80;3.57;;;;;;;14.92;24.70;101332.47;5059642;28;20411;-72
2021/04/10 10:48:26;;;;;;;5.93;3.60;;;;;;;14.80;25.19;101329.84;5058915;28;20166;-71
2021/04/10 10:50:56;;;;;;;5.33;3.93;;;;;;;15.03;25.11;101324.63;5059006;28;20614;-72
2021/04/10 10:53:24;;;;;;;5.50;3.67;;;;;;;15.78;23.20;101323.69;5058718;28;20467;-72
2021/04/10 10:56:05;;;;;;;5.20;3.67;;;;;;;13.92;27.83;101327.78;5058662;28;20424;-70
2021/04/10 10:58:45;;;;;;;5.83;3.20;;;;;;;14.28;24.93;101325.31;5059018;28;20387;-70
2021/04/10 11:01:13;;;;;;;7.50;3.23;;;;;;;14.77;25.72;101320.22;5063882;28;20432;-73
2021/04/10 11:03:43;;;;;;;4.50;3.17;;;;;;;16.35;23.69;101316.50;5061292;28;20439;-73
2021/04/10 11:06:08;;;;;;;5.60;3.60;;;;;;;15.89;23.28;101318.44;5060826;28;20497;-72
2021/04/10 11:08:34;;;;;;;5.60;3.83;;;;;;;16.03;23.16;101317.50;5063544;28;20400;-73
2021/04/10 11:10:59;;;;;;;7.53;4.73;;;;;;;17.30;22.59;101307.06;5061637;28;20173;-70
2021/04/10 11:13:25;;;;;;;6.67;3.70;;;;;;;16.32;22.73;101312.13;5058796;28;20456;-72
2021/04/10 11:15:51;;;;;;;7.07;3.40;;;;;;;13.53;26.60;101323.16;5059402;28;20189;-70
2021/04/10 11:18:30;;;;;;;7.83;3.53;;;;;;;15.09;25.66;101314.13;5058595;28;20173;-72
2021/04/10 11:21:20;;;;;;;6.00;3.87;;;;;;;13.85;26.87;101325.13;5058913;28;20193;-73
2021/04/10 11:24:05;;;;;;;7.97;4.00;;;;;;;13.29;27.07;101316.88;5058447;28;20427;-74
2021/04/10 11:26:36;;;;;;;7.27;4.43;;;;;;;14.79;25.37;101317.63;5059017;28;20705;-72
2021/04/10 11:29:24;;;;;;;4.77;3.40;;;;;;;15.55;24.77;101312.34;5061175;28;20463;-72
2021/04/10 11:32:16;;;;;;;5.80;3.53;;;;;;;13.10;26.04;101323.69;5062794;28;20451;-71